Kansas City, Missouri
Traffic Map
Current Weather Conditions
Kansas City, Missouri
Overcast
Overcast

Feels Like: 7°
Wind Chill: Ceiling: 500
Heat Index: Visibility: 10mi
Dew Point: Wind: 3mph
Humidity: 97% Direction: 170° (S)
Pressure: 29.81in Gusts: 0mph
Raw Report DataKMKC 191354Z 17003KT 10SM OVC005 07/07 A2981 RMK AO2 SLP096 T00720067
Traffic Incident Summary
Active as of:
Severity:
Category:
InformationThere was an issue retrieving the traffic information for this location. Please try a different location or try again shortly.
Advertisements
Track Severe Weather on mobile